Time;durP1;ratioP1;P1;durP2;ratioP2;P2;SDS_P1;SDS_P2;PMS_P1;PMS_P2;Temp;Humidity;BMP_temperature;BMP_pressure;BME280_temperature;BME280_humidity;BME280_pressure;Samples;Min_cycle;Max_cycle;Signal;HPM_P1;HPM_P2
2022/06/21 00:02:13;;;;;;;10.80;9.80;;;;;;;15.77;95.88;99253.41;5093767;28;20595;-73
2022/06/21 00:04:41;;;;;;;10.73;9.80;;;;;;;15.84;95.46;99241.03;5094249;28;20746;-73
2022/06/21 00:07:13;;;;;;;11.50;10.30;;;;;;;15.66;97.26;99256.13;5093869;28;20219;-75
2022/06/21 00:09:40;;;;;;;14.73;11.55;;;;;;;15.75;97.07;99253.53;5094243;28;20280;-74
2022/06/21 00:12:10;;;;;;;11.38;10.25;;;;;;;15.70;97.66;99263.88;5093459;28;20265;-75
2022/06/21 00:14:36;;;;;;;11.23;10.20;;;;;;;15.60;97.94;99271.97;5094038;28;20267;-74
2022/06/21 00:17:05;;;;;;;10.68;9.57;;;;;;;15.68;98.12;99268.59;5093530;28;20184;-74
2022/06/21 00:19:33;;;;;;;11.75;10.57;;;;;;;15.96;95.54;99268.97;5094092;28;20517;-75
2022/06/21 00:22:00;;;;;;;14.95;10.55;;;;;;;16.07;93.55;99257.19;5093766;28;20291;-74
2022/06/21 00:24:26;;;;;;;14.05;9.85;;;;;;;16.05;93.43;99260.91;5093609;28;20297;-74
2022/06/21 00:26:53;;;;;;;10.13;9.23;;;;;;;16.16;92.06;99267.25;5093500;28;20279;-74
2022/06/21 00:29:19;;;;;;;11.60;10.18;;;;;;;16.02;93.12;99263.03;5093134;28;20669;-75
2022/06/21 00:31:49;;;;;;;11.25;10.23;;;;;;;15.73;96.70;99265.50;5093735;28;20607;-73
2022/06/21 00:34:20;;;;;;;11.82;10.73;;;;;;;15.64;97.82;99267.97;5093594;28;20176;-75
2022/06/21 00:36:49;;;;;;;10.70;9.60;;;;;;;15.69;97.85;99272.16;5093459;28;20319;-75
2022/06/21 00:39:18;;;;;;;12.95;10.80;;;;;;;15.45;99.67;99267.81;5093464;28;20303;-74
2022/06/21 00:41:49;;;;;;;12.25;10.32;;;;;;;15.62;98.81;99269.09;5093412;28;20195;-74
2022/06/21 00:44:20;;;;;;;11.35;10.15;;;;;;;15.42;100.00;99257.19;5093415;28;20645;-75
2022/06/21 00:46:50;;;;;;;12.18;11.00;;;;;;;15.11;100.00;99254.34;5093674;28;20287;-75
2022/06/21 00:49:21;;;;;;;12.13;11.07;;;;;;;14.93;100.00;99251.28;5093118;28;20284;-74
2022/06/21 00:51:52;;;;;;;13.02;11.73;;;;;;;14.91;100.00;99249.69;5093527;28;20211;-75
2022/06/21 00:54:24;;;;;;;12.48;11.27;;;;;;;14.96;100.00;99255.59;5093328;28;20271;-75
2022/06/21 00:56:56;;;;;;;12.25;10.90;;;;;;;14.94;100.00;99246.72;5092824;28;20223;-74
2022/06/21 00:59:25;;;;;;;12.25;11.05;;;;;;;14.96;100.00;99245.59;5093397;28;20177;-76
2022/06/21 01:01:56;;;;;;;11.65;10.60;;;;;;;15.00;100.00;99238.94;5093513;28;20629;-74
2022/06/21 01:04:29;;;;;;;11.77;10.77;;;;;;;14.88;100.00;99239.97;5093028;28;20295;-76
2022/06/21 01:07:01;;;;;;;11.35;10.45;;;;;;;15.04;100.00;99242.28;5092936;28;20193;-74
2022/06/21 01:09:33;;;;;;;12.60;11.50;;;;;;;14.98;100.00;99234.63;5093365;28;20275;-75
2022/06/21 01:12:05;;;;;;;12.07;11.05;;;;;;;14.94;100.00;99220.47;5092927;28;20193;-74
2022/06/21 01:14:33;;;;;;;14.43;13.02;;;;;;;14.73;100.00;99206.81;5092813;28;20181;-74
2022/06/21 01:17:00;;;;;;;17.15;14.45;;;;;;;14.68;100.00;99214.47;5092116;28;20224;-74
2022/06/21 01:19:38;;;;;;;13.90;12.70;;;;;;;14.92;100.00;99217.00;5092476;28;20223;-75
2022/06/21 01:22:23;;;;;;;18.48;16.67;;;;;;;14.82;100.00;99210.63;5092724;28;20184;-75
2022/06/21 01:25:05;;;;;;;16.88;15.30;;;;;;;14.94;100.00;99214.19;5092935;28;20787;-74
2022/06/21 01:27:33;;;;;;;17.35;15.55;;;;;;;14.66;100.00;99204.75;5093098;28;20288;-76
2022/06/21 01:30:00;;;;;;;17.05;15.45;;;;;;;14.62;100.00;99197.84;5092508;28;20183;-73
2022/06/21 01:32:27;;;;;;;16.10;14.40;;;;;;;14.68;100.00;99202.78;5092531;28;20264;-75
2022/06/21 01:34:54;;;;;;;16.52;14.88;;;;;;;14.52;100.00;99201.28;5092880;28;20187;-75
2022/06/21 01:37:27;;;;;;;14.68;13.48;;;;;;;14.52;100.00;99203.13;5092430;28;20239;-74
2022/06/21 01:39:59;;;;;;;15.15;13.30;;;;;;;14.52;100.00;99195.00;5092631;28;20626;-74
2022/06/21 01:42:31;;;;;;;14.07;12.65;;;;;;;14.44;100.00;99200.16;5092354;28;20180;-74
2022/06/21 01:45:03;;;;;;;14.70;12.50;;;;;;;14.29;100.00;99207.66;5092264;28;20747;-74
2022/06/21 01:47:36;;;;;;;13.63;12.32;;;;;;;14.32;100.00;99197.47;5092844;28;20275;-74
2022/06/21 01:50:08;;;;;;;14.55;13.07;;;;;;;14.22;100.00;99207.28;5091990;28;20287;-73
2022/06/21 01:52:39;;;;;;;15.10;13.77;;;;;;;14.18;100.00;99197.72;5092584;28;20191;-75
2022/06/21 01:55:11;;;;;;;14.70;13.38;;;;;;;14.14;100.00;99201.63;5091518;28;20275;-75
2022/06/21 01:57:39;;;;;;;14.85;13.38;;;;;;;14.19;100.00;99194.84;5079436;28;20286;-74
2022/06/21 02:00:09;;;;;;;13.85;12.35;;;;;;;14.33;100.00;99182.06;5112735;28;20183;-74
2022/06/21 02:02:39;;;;;;;15.18;13.85;;;;;;;14.43;100.00;99198.47;5112818;28;20676;-74
2022/06/21 02:05:12;;;;;;;16.30;14.80;;;;;;;14.34;100.00;99198.19;5112544;28;20549;-73
2022/06/21 02:07:44;;;;;;;17.92;16.15;;;;;;;14.33;100.00;99196.47;5072412;28;20519;-74
2022/06/21 02:10:17;;;;;;;15.68;14.35;;;;;;;14.37;100.00;99207.91;5074884;28;20184;-74
2022/06/21 02:12:49;;;;;;;14.82;13.43;;;;;;;14.22;100.00;99190.19;5075993;28;20284;-75
2022/06/21 02:15:28;;;;;;;16.40;14.75;;;;;;;14.16;100.00;99208.66;5077558;28;20608;-75
2022/06/21 02:17:55;;;;;;;16.27;14.15;;;;;;;14.36;100.00;99206.22;5095696;28;20195;-74
2022/06/21 02:20:28;;;;;;;15.02;13.52;;;;;;;14.06;100.00;99212.19;5096350;28;20180;-75
2022/06/21 02:22:55;;;;;;;15.82;14.30;;;;;;;14.04;100.00;99206.94;5096009;28;20286;-74
2022/06/21 02:25:23;;;;;;;18.20;14.95;;;;;;;13.98;100.00;99188.47;5095872;28;20724;-75
2022/06/21 02:27:55;;;;;;;16.75;15.05;;;;;;;13.73;100.00;99184.09;5096371;28;20290;-74
2022/06/21 02:30:26;;;;;;;16.95;15.40;;;;;;;13.68;100.00;99168.22;5095998;28;20188;-74
2022/06/21 02:32:54;;;;;;;17.30;15.10;;;;;;;13.72;100.00;99176.94;5096021;28;20278;-74
2022/06/21 02:35:25;;;;;;;17.02;15.43;;;;;;;13.72;100.00;99166.97;5095443;28;20197;-74
2022/06/21 02:37:55;;;;;;;15.95;14.32;;;;;;;13.91;100.00;99182.66;5095782;28;20275;-74
2022/06/21 02:40:26;;;;;;;16.65;15.05;;;;;;;13.89;100.00;99173.78;5095901;28;20226;-74
2022/06/21 02:42:57;;;;;;;17.83;15.98;;;;;;;13.87;100.00;99170.34;5096181;28;20640;-74
2022/06/21 02:45:32;;;;;;;18.40;16.80;;;;;;;13.64;100.00;99165.88;5095439;28;20294;-74
2022/06/21 02:48:05;;;;;;;19.83;17.92;;;;;;;13.58;100.00;99161.78;5095906;28;20237;-75
2022/06/21 02:50:37;;;;;;;18.65;16.95;;;;;;;13.45;100.00;99156.47;5095640;28;20188;-75
2022/06/21 02:53:12;;;;;;;18.80;17.00;;;;;;;13.30;100.00;99150.41;5094958;28;20194;-75
2022/06/21 02:55:46;;;;;;;18.65;16.80;;;;;;;13.23;100.00;99149.13;5095733;28;20187;-75
2022/06/21 02:58:21;;;;;;;21.38;18.52;;;;;;;13.38;100.00;99157.91;5095647;28;20183;-75
2022/06/21 03:00:51;;;;;;;19.95;18.15;;;;;;;13.66;100.00;99155.81;5095489;28;20224;-75
2022/06/21 03:03:23;;;;;;;20.83;16.13;;;;;;;13.60;100.00;99156.28;5095208;28;20194;-75
2022/06/21 03:05:52;;;;;;;18.50;16.48;;;;;;;13.79;100.00;99161.97;5095379;28;20204;-75
2022/06/21 03:08:20;;;;;;;19.70;16.25;;;;;;;13.76;100.00;99154.94;5094792;28;20265;-75
2022/06/21 03:10:49;;;;;;;18.17;16.27;;;;;;;13.60;100.00;99135.50;5095176;28;20283;-74
2022/06/21 03:13:18;;;;;;;17.92;16.23;;;;;;;13.49;100.00;99133.59;5095719;28;20648;-75
2022/06/21 03:15:50;;;;;;;20.00;17.70;;;;;;;13.46;100.00;99130.31;5095448;28;20609;-75
2022/06/21 03:18:20;;;;;;;21.15;19.15;;;;;;;13.21;100.00;99120.50;5095013;28;20668;-74
2022/06/21 03:20:48;;;;;;;20.95;18.90;;;;;;;13.31;100.00;99114.25;5094015;28;20192;-74
2022/06/21 03:23:17;;;;;;;22.75;20.05;;;;;;;13.30;100.00;99109.00;5094973;28;20276;-75
2022/06/21 03:25:46;;;;;;;22.55;19.42;;;;;;;13.29;100.00;99109.97;5094370;28;20214;-73
2022/06/21 03:28:23;;;;;;;20.80;18.73;;;;;;;13.38;100.00;99128.16;5094725;28;20287;-75
2022/06/21 03:30:57;;;;;;;20.65;18.65;;;;;;;13.32;100.00;99116.00;5094278;28;20670;-74
2022/06/21 03:33:24;;;;;;;19.27;17.27;;;;;;;13.41;100.00;99117.13;5095001;28;20256;-74
2022/06/21 03:35:51;;;;;;;18.50;16.70;;;;;;;13.22;100.00;99103.28;5094292;28;20702;-75
2022/06/21 03:38:18;;;;;;;19.48;17.55;;;;;;;13.23;100.00;99094.16;5095025;28;20268;-74
2022/06/21 03:43:33;;;;;;;18.65;16.85;;;;;;;13.20;100.00;99089.00;5094617;28;20194;-74
2022/06/21 03:46:06;;;;;;;20.10;17.98;;;;;;;13.40;100.00;99082.94;5094694;28;20301;-73
2022/06/21 03:48:38;;;;;;;17.67;15.88;;;;;;;13.43;100.00;99063.81;5094460;28;20183;-74
2022/06/21 03:51:10;;;;;;;19.95;17.85;;;;;;;13.40;100.00;99055.91;5094753;28;20190;-75
2022/06/21 03:53:41;;;;;;;19.85;16.77;;;;;;;13.39;100.00;99062.31;5094628;28;20683;-74
2022/06/21 03:56:15;;;;;;;19.95;17.65;;;;;;;13.25;100.00;99070.59;5094394;28;20179;-73
2022/06/21 03:58:50;;;;;;;21.05;18.38;;;;;;;13.36;100.00;99070.66;5094086;28;20273;-74
2022/06/21 04:01:24;;;;;;;20.00;18.05;;;;;;;13.59;100.00;99062.56;5093976;28;20715;-75
2022/06/21 04:03:56;;;;;;;18.33;16.52;;;;;;;13.75;100.00;99060.38;5093636;28;20222;-74
2022/06/21 04:06:36;;;;;;;19.00;17.20;;;;;;;13.91;100.00;99060.03;5094407;28;20243;-74
2022/06/21 04:09:06;;;;;;;18.20;16.35;;;;;;;13.82;100.00;99053.50;5094328;28;20265;-74
2022/06/21 04:11:41;;;;;;;17.58;15.88;;;;;;;14.05;100.00;99048.06;5095760;28;20676;-75
2022/06/21 04:14:17;;;;;;;17.30;15.10;;;;;;;13.99;100.00;99054.84;5094018;28;20193;-75
2022/06/21 04:16:53;;;;;;;18.50;16.80;;;;;;;14.00;100.00;99061.09;5093530;28;20215;-75
2022/06/21 04:19:26;;;;;;;18.00;16.10;;;;;;;14.28;100.00;99059.72;5092876;28;20278;-74
2022/06/21 04:21:59;;;;;;;17.27;15.60;;;;;;;14.37;100.00;99070.66;5094022;28;20210;-73
2022/06/21 04:24:30;;;;;;;19.75;16.25;;;;;;;14.17;100.00;99066.88;5094041;28;20187;-74
2022/06/21 04:27:02;;;;;;;18.55;16.52;;;;;;;14.34;100.00;99059.22;5093620;28;20202;-76
2022/06/21 04:29:33;;;;;;;18.90;17.00;;;;;;;14.26;100.00;99065.25;5093245;28;20191;-76
2022/06/21 04:32:08;;;;;;;17.13;15.50;;;;;;;14.24;100.00;99059.09;5093441;28;20338;-75
2022/06/21 04:34:39;;;;;;;15.68;14.18;;;;;;;14.36;100.00;99063.53;5093659;28;20266;-74
2022/06/21 04:37:10;;;;;;;14.80;13.15;;;;;;;14.60;100.00;99065.22;5093156;28;20223;-75
2022/06/21 04:39:41;;;;;;;13.98;12.65;;;;;;;14.59;100.00;99077.06;5093609;28;20661;-75
2022/06/21 04:42:15;;;;;;;14.55;12.95;;;;;;;15.00;100.00;99061.88;5093323;28;20193;-74
2022/06/21 04:44:49;;;;;;;15.02;13.63;;;;;;;15.12;100.00;99060.81;5093360;28;20300;-74
2022/06/21 04:47:23;;;;;;;14.23;12.90;;;;;;;15.40;100.00;99055.75;5093258;28;20184;-75
2022/06/21 04:49:56;;;;;;;13.77;11.90;;;;;;;15.35;100.00;99066.13;5093227;28;20612;-75
2022/06/21 04:52:28;;;;;;;12.75;11.48;;;;;;;15.54;100.00;99068.09;5092862;28;20229;-74
2022/06/21 04:54:55;;;;;;;10.70;9.63;;;;;;;15.37;99.93;99073.13;5093024;28;20180;-75
2022/06/21 04:57:24;;;;;;;14.32;12.95;;;;;;;15.30;100.00;99071.09;5093172;28;20211;-75
2022/06/21 04:59:55;;;;;;;12.80;10.57;;;;;;;15.48;100.00;99077.63;5092739;28;20185;-75
2022/06/21 05:02:27;;;;;;;11.90;10.52;;;;;;;15.49;98.26;99067.63;5093192;28;20186;-75
2022/06/21 05:04:57;;;;;;;12.00;11.00;;;;;;;15.16;100.00;99062.28;5092749;28;20311;-75
2022/06/21 05:07:29;;;;;;;12.10;11.00;;;;;;;15.22;100.00;99071.75;5100746;28;20188;-82
2022/06/21 05:09:57;;;;;;;12.73;11.52;;;;;;;15.59;98.45;99069.41;5092026;28;20207;-82
2022/06/21 05:12:31;;;;;;;13.60;11.10;;;;;;;15.78;96.79;99067.81;5093227;28;20225;-83
2022/06/21 05:15:02;;;;;;;14.38;12.13;;;;;;;15.59;97.31;99068.56;5092851;28;20184;-83
2022/06/21 05:17:33;;;;;;;12.93;11.68;;;;;;;15.73;96.69;99073.66;5093376;28;20501;-82
2022/06/21 05:20:05;;;;;;;10.25;9.23;;;;;;;16.11;93.26;99093.00;5092551;28;20271;-83
2022/06/21 05:22:36;;;;;;;9.02;8.23;;;;;;;16.49;89.69;99100.41;5092607;28;20218;-82
2022/06/21 05:25:07;;;;;;;9.68;8.70;;;;;;;16.68;86.86;99115.91;5100916;28;20662;-74
2022/06/21 05:27:42;;;;;;;8.45;7.65;;;;;;;16.54;87.48;99110.88;5092529;28;20291;-75
2022/06/21 05:30:17;;;;;;;9.63;8.52;;;;;;;16.35;88.73;99103.50;5092742;28;20698;-75
2022/06/21 05:32:49;;;;;;;8.80;8.00;;;;;;;16.56;87.50;99103.44;5092586;28;20537;-75
2022/06/21 05:35:18;;;;;;;9.68;8.65;;;;;;;16.75;87.26;99130.63;5092308;28;20259;-75
2022/06/21 05:37:51;;;;;;;10.50;7.80;;;;;;;17.16;84.25;99161.34;5091917;28;20271;-75
2022/06/21 05:40:25;;;;;;;8.35;7.43;;;;;;;17.43;81.61;99176.13;5091610;28;20218;-75
2022/06/21 05:42:52;;;;;;;9.27;7.43;;;;;;;17.44;80.39;99183.31;5090902;28;20195;-75
2022/06/21 05:45:21;;;;;;;8.38;7.32;;;;;;;17.62;78.04;99197.91;5090676;28;20295;-74
2022/06/21 05:47:56;;;;;;;10.35;7.97;;;;;;;17.65;78.31;99208.50;5092106;28;20202;-72
2022/06/21 05:50:28;;;;;;;8.50;6.90;;;;;;;17.20;81.93;99208.19;5090919;28;20295;-75
2022/06/21 05:53:00;;;;;;;9.02;7.93;;;;;;;16.96;83.43;99214.00;5091580;28;20576;-74
2022/06/21 05:55:34;;;;;;;8.35;7.65;;;;;;;16.84;84.98;99227.72;5091581;28;20294;-73
2022/06/21 05:58:04;;;;;;;8.50;7.35;;;;;;;16.47;87.66;99227.41;5091357;28;20241;-73
2022/06/21 06:00:37;;;;;;;8.30;7.53;;;;;;;16.21;90.18;99213.38;5091498;28;20243;-74
2022/06/21 06:03:12;;;;;;;9.50;8.65;;;;;;;16.13;96.32;99207.78;5091410;28;20279;-74
2022/06/21 06:05:39;;;;;;;11.32;9.10;;;;;;;16.24;98.45;99189.53;5090866;28;20231;-74
2022/06/21 06:08:10;;;;;;;17.50;9.43;;;;;;;16.67;100.00;99180.28;5090833;28;20276;-74
2022/06/21 06:10:40;;;;;;;9.80;8.80;;;;;;;17.04;95.84;99196.00;5090996;28;20265;-73
2022/06/21 06:13:11;;;;;;;13.90;11.10;;;;;;;17.36;93.01;99207.63;5090608;28;20230;-73
2022/06/21 06:15:43;;;;;;;7.82;7.03;;;;;;;17.74;83.49;99217.66;5090733;28;20282;-74
2022/06/21 06:18:18;;;;;;;8.23;7.40;;;;;;;17.20;84.70;99179.13;5090936;28;20553;-74
2022/06/21 06:20:52;;;;;;;12.65;7.25;;;;;;;16.73;91.44;99118.19;5091161;28;20185;-75
2022/06/21 06:23:28;;;;;;;11.50;8.48;;;;;;;15.96;100.00;98992.03;5091381;28;20309;-74
2022/06/21 06:25:58;;;;;;;8.70;7.90;;;;;;;15.49;100.00;98916.59;5091433;28;20290;-72
2022/06/21 06:28:36;;;;;;;10.77;7.70;;;;;;;15.32;100.00;98834.00;5091383;28;20211;-73
2022/06/21 06:31:09;;;;;;;8.70;7.90;;;;;;;15.21;100.00;98794.28;5090828;28;20585;-73
2022/06/21 06:33:41;;;;;;;8.75;7.78;;;;;;;15.58;100.00;98825.34;5091026;28;20238;-74
2022/06/21 06:36:10;;;;;;;8.80;7.90;;;;;;;16.03;100.00;98893.59;5090773;28;20316;-74
2022/06/21 06:38:38;;;;;;;8.60;7.80;;;;;;;16.47;100.00;98942.94;5090141;28;20288;-73
2022/06/21 06:41:11;;;;;;;10.85;7.82;;;;;;;16.55;100.00;98982.13;5090911;28;20604;-73
2022/06/21 06:43:44;;;;;;;14.10;10.30;;;;;;;16.70;100.00;98977.13;5090904;28;20194;-74
2022/06/21 06:46:17;;;;;;;10.15;9.27;;;;;;;16.66;98.88;98982.88;5090928;28;20315;-73
2022/06/21 06:48:46;;;;;;;10.50;8.70;;;;;;;16.61;99.85;98967.97;5090948;28;20642;-73
2022/06/21 06:51:43;;;;;;;10.30;9.30;;;;;;;16.68;100.00;98980.00;5090399;28;20315;-73
2022/06/21 06:54:20;;;;;;;11.80;8.70;;;;;;;16.75;100.00;98983.84;5089577;28;20195;-73
2022/06/21 06:56:54;;;;;;;9.05;7.18;;;;;;;16.97;98.50;98979.16;5094366;28;20275;-72
2022/06/21 06:59:24;;;;;;;10.10;8.50;;;;;;;17.26;99.63;98977.25;5095147;28;20539;-73
2022/06/21 07:01:58;;;;;;;10.27;6.22;;;;;;;17.78;91.34;98965.88;5094083;28;20184;-74
2022/06/21 07:04:31;;;;;;;7.45;6.85;;;;;;;17.90;92.50;98978.31;5094303;28;20213;-73
2022/06/21 07:07:03;;;;;;;11.45;8.40;;;;;;;18.41;90.17;98986.91;5094301;28;20208;-74
2022/06/21 07:09:32;;;;;;;6.47;5.50;;;;;;;18.61;80.91;98995.81;5094432;28;20224;-73
2022/06/21 07:12:07;;;;;;;9.05;6.13;;;;;;;18.80;84.99;99003.00;5094499;28;20241;-73
2022/06/21 07:14:35;;;;;;;5.97;5.47;;;;;;;18.95;81.76;98997.88;5093871;28;20278;-73
2022/06/21 07:17:08;;;;;;;6.72;5.28;;;;;;;18.98;78.36;99004.88;5094225;28;20286;-74
2022/06/21 07:19:36;;;;;;;7.43;6.72;;;;;;;19.15;77.46;99013.03;5094417;28;20271;-73
2022/06/21 07:22:02;;;;;;;5.60;5.07;;;;;;;19.14;75.84;99015.91;5094194;28;20278;-73
2022/06/21 07:24:29;;;;;;;6.80;4.80;;;;;;;19.44;75.41;99011.00;5094379;28;20194;-74
2022/06/21 07:27:02;;;;;;;7.90;5.38;;;;;;;19.70;72.94;99020.09;5093718;28;20317;-73
2022/06/21 07:29:34;;;;;;;6.70;5.95;;;;;;;19.93;73.45;99022.28;5093870;28;20310;-73
2022/06/21 07:32:08;;;;;;;5.70;5.17;;;;;;;19.59;70.36;99020.34;5093864;28;20195;-74
2022/06/21 07:34:42;;;;;;;6.70;5.13;;;;;;;19.71;69.76;99024.53;5093893;28;20847;-74
2022/06/21 07:37:15;;;;;;;5.87;5.37;;;;;;;19.76;69.64;99010.38;5093532;28;20493;-73
2022/06/21 07:39:46;;;;;;;7.90;5.38;;;;;;;19.92;69.39;99009.59;5093831;28;20421;-73
2022/06/21 07:42:15;;;;;;;5.43;4.80;;;;;;;20.07;68.77;99007.97;5092740;28;20185;-73
2022/06/21 07:44:48;;;;;;;6.33;5.33;;;;;;;20.25;68.52;99015.22;5093637;28;20851;-73
2022/06/21 07:47:21;;;;;;;7.00;4.60;;;;;;;20.06;67.72;99011.75;5093189;28;20466;-74
2022/06/21 07:49:52;;;;;;;4.60;4.20;;;;;;;20.20;68.44;99008.38;5093565;28;20430;-74
2022/06/21 07:52:25;;;;;;;5.30;4.37;;;;;;;20.58;65.59;99011.59;5093372;28;20430;-74
2022/06/21 07:54:56;;;;;;;5.03;4.47;;;;;;;20.68;64.49;99010.59;5093483;28;20888;-74
2022/06/21 07:57:28;;;;;;;6.70;4.50;;;;;;;20.82;64.00;99005.28;5093384;28;20426;-73
2022/06/21 08:00:00;;;;;;;6.60;4.10;;;;;;;20.48;65.42;98997.16;5093754;28;20588;-73
2022/06/21 08:08:13;;;;;;;5.17;4.40;;;;;;;21.72;60.24;99006.31;5092426;28;20426;-75
2022/06/21 08:10:45;;;;;;;4.47;4.07;;;;;;;21.93;59.00;99022.16;5093248;28;20505;-74
2022/06/21 08:13:12;;;;;;;4.63;4.07;;;;;;;21.21;61.15;99018.34;5093471;28;20422;-74
2022/06/21 08:15:43;;;;;;;7.43;4.17;;;;;;;20.98;62.26;99018.16;5093633;28;20476;-73
2022/06/21 08:18:21;;;;;;;6.30;4.70;;;;;;;21.06;60.70;99016.44;5092841;28;20442;-73
2022/06/21 08:20:57;;;;;;;5.03;4.37;;;;;;;20.96;61.19;99009.28;5093103;28;20479;-73
2022/06/21 08:23:30;;;;;;;7.70;4.00;;;;;;;21.25;61.13;99010.63;5092720;28;20430;-73
2022/06/21 08:26:03;;;;;;;6.80;4.90;;;;;;;21.56;59.77;99008.03;5092939;28;20964;-73
2022/06/21 08:28:35;;;;;;;4.23;3.83;;;;;;;21.84;57.56;99008.50;5093083;28;20987;-73
2022/06/21 08:31:09;;;;;;;5.37;4.13;;;;;;;21.74;57.54;99002.34;5092371;28;20426;-73
2022/06/21 08:33:42;;;;;;;6.40;3.60;;;;;;;22.00;56.68;99012.19;5092966;28;20444;-73
2022/06/21 08:36:14;;;;;;;5.90;5.10;;;;;;;22.57;55.01;99013.88;5092500;28;20473;-73
2022/06/21 08:38:46;;;;;;;5.67;3.90;;;;;;;22.83;54.95;99016.25;5092267;28;20479;-73
2022/06/21 08:41:56;;;;;;;4.33;3.80;;;;;;;23.06;53.48;99006.16;5093217;28;20438;-74
2022/06/21 08:48:15;;;;;;;4.23;3.57;;;;;;;22.75;54.58;99013.56;5092272;28;20507;-74
2022/06/21 08:50:56;;;;;;;3.90;3.50;;;;;;;23.10;52.79;99007.50;5075397;28;20524;-73
2022/06/21 08:53:56;;;;;;;3.40;3.03;;;;;;;22.80;51.69;99011.16;5092526;28;20955;-73
2022/06/21 08:56:27;;;;;;;4.43;3.50;;;;;;;22.95;52.68;98995.59;5092217;28;20418;-73
2022/06/21 08:59:10;;;;;;;3.80;3.37;;;;;;;23.15;52.69;99004.19;5092442;28;20505;-73
2022/06/21 09:01:49;;;;;;;4.97;3.20;;;;;;;22.75;54.72;99005.34;5092404;28;20426;-74
2022/06/21 09:04:27;;;;;;;4.97;4.47;;;;;;;22.88;54.89;99009.22;5091883;28;20418;-73
2022/06/21 09:07:19;;;;;;;4.20;3.50;;;;;;;22.89;54.72;99001.81;5092529;28;20548;-73
2022/06/21 09:10:06;;;;;;;5.43;3.80;;;;;;;22.92;54.08;98995.97;5078358;28;20527;-73
2022/06/21 09:12:43;;;;;;;4.70;3.30;;;;;;;23.08;53.99;98993.09;5091607;28;20454;-73
2022/06/21 09:15:23;;;;;;;5.60;3.47;;;;;;;23.11;54.01;98991.91;5092281;28;20430;-75
2022/06/21 09:18:00;;;;;;;8.93;4.10;;;;;;;23.31;54.35;98989.47;5091901;28;20959;-74
2022/06/21 09:20:34;;;;;;;5.63;4.40;;;;;;;22.97;54.37;98988.00;5091697;28;20429;-72
2022/06/21 09:23:07;;;;;;;6.33;3.50;;;;;;;23.45;52.90;98980.44;5091789;28;20449;-73
2022/06/21 09:25:45;;;;;;;4.70;3.90;;;;;;;23.29;54.04;98986.06;5092007;28;20514;-74
2022/06/21 09:28:29;;;;;;;4.20;3.47;;;;;;;23.61;52.55;98995.03;5091948;28;20545;-73
2022/06/21 09:31:00;;;;;;;4.73;4.00;;;;;;;23.83;51.74;98993.28;5091312;28;20526;-73
2022/06/21 09:33:36;;;;;;;4.23;3.50;;;;;;;23.67;51.74;98984.13;5091769;28;20439;-73
2022/06/21 09:36:13;;;;;;;7.90;6.37;;;;;;;23.42;52.94;98978.03;5091357;28;20565;-73
2022/06/21 09:38:46;;;;;;;4.10;3.60;;;;;;;23.32;53.30;98988.44;5091776;28;20884;-73
2022/06/21 09:41:21;;;;;;;5.10;3.70;;;;;;;23.78;51.83;98976.50;5091950;28;20504;-73
2022/06/21 09:44:06;;;;;;;4.97;3.60;;;;;;;23.97;51.32;98980.56;5091539;28;20429;-75
2022/06/21 09:46:41;;;;;;;7.57;3.53;;;;;;;24.07;50.98;98968.22;5091349;28;20472;-74
2022/06/21 09:49:19;;;;;;;4.10;3.80;;;;;;;24.08;50.70;98958.06;5091256;28;20525;-73
2022/06/21 09:51:53;;;;;;;5.17;4.07;;;;;;;24.06;51.47;98958.28;5091644;28;20461;-74
2022/06/21 09:54:32;;;;;;;17.63;13.13;;;;;;;24.07;51.97;98965.47;5091176;28;20559;-74
2022/06/21 09:57:12;;;;;;;15.03;9.97;;;;;;;23.88;52.22;98947.69;5091449;28;20426;-74
2022/06/21 09:59:47;;;;;;;13.03;8.63;;;;;;;23.95;52.72;98967.03;5091611;28;20508;-74
2022/06/21 10:02:20;;;;;;;12.20;9.17;;;;;;;24.23;51.15;98956.16;5091608;28;20832;-73
2022/06/21 10:04:59;;;;;;;7.70;5.50;;;;;;;24.19;51.06;98963.09;5091635;28;20852;-73
2022/06/21 10:07:46;;;;;;;3.87;3.43;;;;;;;23.76;52.67;98957.44;5091118;28;20468;-74
2022/06/21 10:10:26;;;;;;;4.33;3.70;;;;;;;24.06;52.21;98965.66;5091570;28;20426;-74
2022/06/21 10:13:10;;;;;;;5.33;4.50;;;;;;;24.37;51.67;98957.16;5091466;28;20876;-73
2022/06/21 10:15:51;;;;;;;4.47;4.03;;;;;;;24.33;51.48;98953.97;5091633;28;20887;-74
2022/06/21 10:18:55;;;;;;;7.03;5.00;;;;;;;24.53;50.88;98950.59;5091202;28;20415;-73
2022/06/21 10:21:36;;;;;;;9.80;8.20;;;;;;;24.65;50.37;98957.31;5078340;28;20567;-74
2022/06/21 10:24:22;;;;;;;6.07;3.70;;;;;;;24.81;50.37;98960.88;5091032;28;20491;-74
2022/06/21 10:27:07;;;;;;;5.10;3.50;;;;;;;25.13;49.61;98957.56;5090721;28;20585;-73
2022/06/21 10:29:53;;;;;;;8.73;5.40;;;;;;;25.20;49.53;98959.56;5091167;28;20426;-74
2022/06/21 10:32:37;;;;;;;7.80;4.80;;;;;;;25.33;49.65;98962.44;5095330;28;20516;-74
2022/06/21 10:35:51;;;;;;;5.30;4.30;;;;;;;25.54;48.77;98943.06;5095091;28;20816;-74
2022/06/21 10:38:38;;;;;;;8.50;5.00;;;;;;;25.03;50.48;98943.25;5012531;28;20459;-74
2022/06/21 10:41:33;;;;;;;5.63;3.80;;;;;;;25.22;50.00;98947.28;5086853;28;20489;-73
2022/06/21 10:44:26;;;;;;;4.90;3.37;;;;;;;25.51;50.31;98935.22;5094636;28;20465;-74
2022/06/21 10:47:01;;;;;;;557.80;508.30;;;;;;;26.04;48.52;98936.59;5094214;28;20485;-73
2022/06/21 10:49:49;;;;;;;591.30;541.80;;;;;;;25.91;48.32;98924.44;5094949;28;20970;-73
2022/06/21 10:52:38;;;;;;;557.57;508.87;;;;;;;25.30;50.22;98925.06;5094494;28;20434;-74
2022/06/21 10:55:22;;;;;;;597.50;547.63;;;;;;;25.30;50.89;98918.72;5093911;28;20513;-73
2022/06/21 10:57:59;;;;;;;546.93;498.60;;;;;;;25.82;49.31;98922.88;5094273;28;20524;-73
2022/06/21 11:04:02;;;;;;;587.77;538.33;;;;;;;26.67;47.38;98909.66;5094494;28;20402;-74
2022/06/21 11:06:39;;;;;;;597.23;547.67;;;;;;;26.42;48.47;98896.41;5094854;28;20470;-74
2022/06/21 11:09:13;;;;;;;595.00;545.13;;;;;;;26.20;49.48;98894.84;5094366;28;20836;-74
2022/06/21 11:11:48;;;;;;;603.37;553.70;;;;;;;26.31;49.13;98897.00;5094297;28;20492;-73
2022/06/21 11:14:25;;;;;;;618.07;567.90;;;;;;;26.16;49.56;98897.19;5094093;28;20426;-72
2022/06/21 11:17:01;;;;;;;615.90;566.13;;;;;;;25.70;51.57;98885.91;5094079;28;20512;-74
2022/06/21 11:19:41;;;;;;;615.07;564.70;;;;;;;26.05;51.17;98869.31;5095055;28;20445;-73
2022/06/21 11:22:21;;;;;;;7.97;5.33;;;;;;;26.45;49.43;98873.03;5095884;28;20529;-73
2022/06/21 11:25:02;;;;;;;12.50;5.07;;;;;;;26.63;48.88;98864.19;5083915;28;20518;-73
2022/06/21 11:27:36;;;;;;;5.80;4.97;;;;;;;26.17;49.96;98853.91;5093828;28;20490;-76
2022/06/21 11:30:06;;;;;;;9.33;5.53;;;;;;;26.39;49.92;98860.94;5094349;28;20784;-73
2022/06/21 11:32:38;;;;;;;5.97;4.00;;;;;;;25.69;52.01;98860.25;5094296;28;20900;-72
2022/06/21 11:35:16;;;;;;;5.83;4.63;;;;;;;25.69;52.91;98845.59;5093826;28;20462;-73
2022/06/21 11:37:58;;;;;;;5.43;4.67;;;;;;;26.01;52.28;98841.31;5093481;28;20825;-74
2022/06/21 11:40:34;;;;;;;7.00;6.30;;;;;;;26.39;51.48;98844.38;5093624;28;20547;-74
2022/06/21 11:43:03;;;;;;;26.53;14.07;;;;;;;26.06;52.45;98840.69;5092159;28;20670;-75
2022/06/21 11:45:49;;;;;;;625.43;575.17;;;;;;;26.14;52.69;98844.13;5093858;28;20856;-74
2022/06/21 11:48:53;;;;;;;609.73;559.53;;;;;;;26.28;51.99;98847.75;5093784;28;20897;-74
2022/06/21 11:51:36;;;;;;;618.73;568.03;;;;;;;26.52;52.39;98829.75;5093728;28;20429;-73
2022/06/21 11:54:09;;;;;;;630.07;580.00;;;;;;;26.76;51.06;98836.59;5093733;28;20433;-75
2022/06/21 11:56:45;;;;;;;648.17;597.87;;;;;;;27.03;50.36;98836.59;5093435;28;20775;-74
2022/06/21 11:59:22;;;;;;;641.60;590.07;;;;;;;26.41;52.12;98828.47;5092588;28;20421;-75
2022/06/21 12:01:55;;;;;;;640.63;589.43;;;;;;;26.44;52.80;98831.88;5093085;28;20525;-75
2022/06/21 12:04:31;;;;;;;609.83;559.67;;;;;;;27.01;51.81;98819.38;5073038;28;20511;-73
2022/06/21 12:07:07;;;;;;;626.50;576.00;;;;;;;27.29;50.61;98824.66;5072853;28;20502;-74